Time;durP1;ratioP1;P1;durP2;ratioP2;P2;SDS_P1;SDS_P2;PMS_P1;PMS_P2;Temp;Humidity;BMP_temperature;BMP_pressure;BME280_temperature;BME280_humidity;BME280_pressure;Samples;Min_cycle;Max_cycle;Signal;HPM_P1;HPM_P2
2022/12/13 00:00:37;;;;;;;72.28;33.00;;;-3.10;99.90;;;;;;4962902;28;20050;-58
2022/12/13 00:03:03;;;;;;;62.30;31.33;;;-3.30;99.90;;;;;;4965567;28;20870;-58
2022/12/13 00:05:28;;;;;;;68.68;33.38;;;-3.20;99.90;;;;;;4974708;28;20057;-59
2022/12/13 00:07:54;;;;;;;71.45;35.08;;;-3.30;99.90;;;;;;4964865;28;20109;-59
2022/12/13 00:10:20;;;;;;;80.70;36.90;;;-3.50;99.90;;;;;;4964761;28;20046;-57
2022/12/13 00:12:45;;;;;;;73.80;36.60;;;-3.20;99.90;;;;;;4965362;28;20050;-58
2022/12/13 00:15:11;;;;;;;78.03;38.20;;;-3.30;99.90;;;;;;4965198;28;20043;-57
2022/12/13 00:17:37;;;;;;;64.88;34.72;;;-3.50;99.90;;;;;;4964291;28;20051;-58
2022/12/13 00:20:03;;;;;;;72.38;35.47;;;-3.50;99.90;;;;;;4965161;28;20521;-58
2022/12/13 00:22:29;;;;;;;73.15;36.22;;;-3.20;99.90;;;;;;4963031;28;20051;-57
2022/12/13 00:24:57;;;;;;;69.45;34.70;;;-3.50;99.90;;;;;;4965004;28;20043;-58
2022/12/13 00:27:24;;;;;;;64.50;33.65;;;-3.30;99.90;;;;;;4965191;28;20051;-57
2022/12/13 00:29:50;;;;;;;70.60;36.47;;;-3.60;99.90;;;;;;4963250;28;20761;-58
2022/12/13 00:32:16;;;;;;;66.88;33.67;;;-3.40;99.90;;;;;;4964873;28;20051;-58
2022/12/13 00:34:42;;;;;;;61.45;33.60;;;-3.40;99.90;;;;;;4962861;28;20133;-57
2022/12/13 00:37:07;;;;;;;64.03;32.70;;;-3.40;99.90;;;;;;4963494;28;20059;-59
2022/12/13 00:39:33;;;;;;;65.63;32.42;;;-3.60;99.90;;;;;;4963996;28;20062;-57
2022/12/13 00:41:58;;;;;;;62.58;32.65;;;-3.70;99.90;;;;;;4964976;28;20155;-59
2022/12/13 00:44:25;;;;;;;61.15;33.33;;;-3.50;99.90;;;;;;4964374;28;20070;-57
2022/12/13 00:46:50;;;;;;;69.57;35.25;;;-3.70;99.90;;;;;;4946428;28;20102;-58
2022/12/13 00:49:16;;;;;;;58.58;32.67;;;-3.50;99.90;;;;;;4947392;28;20051;-57
2022/12/13 00:51:42;;;;;;;57.50;33.42;;;-3.20;99.90;;;;;;4964249;28;20039;-58
2022/12/13 00:54:09;;;;;;;65.38;34.75;;;-3.40;99.90;;;;;;4963155;28;20608;-58
2022/12/13 00:56:36;;;;;;;62.50;32.80;;;-3.60;99.90;;;;;;4963470;28;20053;-57
2022/12/13 00:59:02;;;;;;;57.70;31.52;;;-3.90;99.90;;;;;;4964709;28;20043;-59
2022/12/13 01:01:30;;;;;;;63.72;31.73;;;-2.80;99.90;;;;;;4964525;28;20398;-60
2022/12/13 01:03:59;;;;;;;65.75;33.55;;;-3.70;99.90;;;;;;4966787;28;20065;-57
2022/12/13 01:06:34;;;;;;;64.88;33.55;;;-3.90;99.90;;;;;;4972906;28;20525;-59
2022/12/13 01:09:00;;;;;;;64.22;33.03;;;-3.90;99.90;;;;;;4962014;28;20039;-60
2022/12/13 01:11:25;;;;;;;65.95;31.60;;;-4.00;99.90;;;;;;4964472;28;20050;-58
2022/12/13 01:13:51;;;;;;;63.38;32.75;;;-3.80;99.90;;;;;;4964177;28;20047;-58
2022/12/13 01:16:17;;;;;;;64.70;32.83;;;-3.90;99.90;;;;;;4964191;28;20082;-58
2022/12/13 01:18:43;;;;;;;63.00;32.40;;;-4.00;99.90;;;;;;4963477;28;20054;-58
2022/12/13 01:21:13;;;;;;;66.88;31.95;;;-3.80;99.90;;;;;;4963882;28;20077;-58
2022/12/13 01:23:40;;;;;;;64.35;32.85;;;-3.70;99.90;;;;;;4963530;28;20061;-57
2022/12/13 01:26:13;;;;;;;58.50;30.05;;;-3.80;99.90;;;;;;4963709;28;20085;-58
2022/12/13 01:28:39;;;;;;;61.05;31.88;;;-4.00;99.90;;;;;;4963485;28;20155;-57
2022/12/13 01:31:11;;;;;;;58.80;32.88;;;-4.10;99.90;;;;;;4962670;28;20054;-59
2022/12/13 01:33:38;;;;;;;65.90;32.88;;;-4.00;99.90;;;;;;4963636;28;20490;-59
2022/12/13 01:36:06;;;;;;;60.25;32.22;;;-3.90;99.90;;;;;;4963259;28;20058;-57
2022/12/13 01:38:32;;;;;;;59.05;31.40;;;-4.00;99.90;;;;;;4977846;28;20117;-58
2022/12/13 01:40:57;;;;;;;60.78;31.63;;;-4.00;99.90;;;;;;4964427;28;20458;-57
2022/12/13 01:43:46;;;;;;;67.47;33.33;;;-3.90;99.90;;;;;;4963338;28;20055;-59
2022/12/13 01:46:13;;;;;;;61.03;31.92;;;-4.20;99.90;;;;;;4970970;28;20078;-58
2022/12/13 01:49:06;;;;;;;64.40;32.42;;;-4.00;99.90;;;;;;4963781;28;20047;-58
2022/12/13 01:52:01;;;;;;;62.00;30.75;;;-4.20;99.90;;;;;;4978137;28;20066;-57
2022/12/13 01:54:31;;;;;;;62.70;31.02;;;-4.10;99.90;;;;;;4963806;28;20405;-57
2022/12/13 01:56:58;;;;;;;57.63;28.20;;;-4.20;99.90;;;;;;4964176;28;20113;-57
2022/12/13 01:59:26;;;;;;;51.80;27.02;;;-4.50;99.90;;;;;;4964323;28;20097;-57
2022/12/13 02:01:51;;;;;;;58.08;30.35;;;-4.40;99.90;;;;;;4962345;28;20086;-57
2022/12/13 02:04:25;;;;;;;59.55;29.17;;;-4.50;99.90;;;;;;4965686;28;20082;-57
2022/12/13 02:06:52;;;;;;;61.60;29.67;;;-4.20;99.90;;;;;;4975111;28;20438;-57
2022/12/13 02:09:18;;;;;;;61.75;31.40;;;-4.40;99.90;;;;;;4981821;28;20039;-55
2022/12/13 02:11:45;;;;;;;64.10;30.65;;;-4.30;99.90;;;;;;4982928;28;20133;-57
2022/12/13 02:14:10;;;;;;;63.17;32.65;;;-4.30;99.90;;;;;;5057781;23;20058;-58
2022/12/13 02:16:57;;;;;;;68.00;29.65;;;-4.20;99.90;;;;;;4981353;28;20046;-58
2022/12/13 02:19:51;;;;;;;55.63;27.38;;;-4.20;99.90;;;;;;4981836;28;20149;-59
2022/12/13 02:22:39;;;;;;;59.28;28.77;;;-4.10;99.90;;;;;;4981337;28;20090;-58
2022/12/13 02:25:38;;;;;;;59.88;31.95;;;-4.00;99.90;;;;;;4982217;28;20117;-59
2022/12/13 02:28:30;;;;;;;65.70;31.92;;;-4.00;99.90;;;;;;4981304;28;20054;-58
2022/12/13 02:31:26;;;;;;;63.63;30.13;;;-4.60;99.90;;;;;;4981639;28;20058;-57
2022/12/13 02:34:04;;;;;;;69.47;33.92;;;-4.30;99.90;;;;;;4981680;28;20128;-59
2022/12/13 02:36:50;;;;;;;70.43;35.13;;;-4.10;99.90;;;;;;4982600;28;20051;-58
2022/12/13 02:39:24;;;;;;;71.05;34.45;;;-3.90;99.90;;;;;;4983526;28;20051;-57
2022/12/13 02:41:56;;;;;;;60.63;31.30;;;-4.00;99.90;;;;;;4982646;28;20201;-60
2022/12/13 02:44:41;;;;;;;64.88;32.83;;;-4.30;99.90;;;;;;4984108;28;20050;-59
2022/12/13 02:47:14;;;;;;;63.05;32.85;;;-4.40;99.90;;;;;;4986167;28;20097;-58
2022/12/13 02:49:44;;;;;;;63.55;32.35;;;-4.10;99.90;;;;;;4986421;28;20042;-58
2022/12/13 02:52:12;;;;;;;63.15;32.67;;;-4.40;99.90;;;;;;4985234;28;20050;-58
2022/12/13 02:54:38;;;;;;;67.22;33.20;;;-4.40;99.90;;;;;;4985645;28;20046;-57
2022/12/13 02:57:03;;;;;;;63.15;32.58;;;-4.30;99.90;;;;;;4986524;28;20108;-58
2022/12/13 02:59:38;;;;;;;63.60;33.30;;;-4.40;99.90;;;;;;4986225;28;20735;-60
2022/12/13 03:02:15;;;;;;;61.75;32.10;;;-4.10;99.90;;;;;;4986809;28;20046;-59
2022/12/13 03:08:23;;;;;;;69.63;33.05;;;-4.40;99.90;;;;;;4982222;28;20210;-59
2022/12/13 03:11:03;;;;;;;69.78;32.78;;;-4.30;99.90;;;;;;4966772;28;20520;-59
2022/12/13 03:13:43;;;;;;;60.67;30.80;;;-4.40;99.90;;;;;;4966997;28;20134;-57
2022/12/13 03:16:13;;;;;;;67.15;33.05;;;-4.30;99.90;;;;;;4966652;28;20460;-59
2022/12/13 03:18:40;;;;;;;61.83;31.98;;;-4.50;99.90;;;;;;4965082;28;20065;-58
2022/12/13 03:21:08;;;;;;;63.15;31.98;;;-4.40;99.90;;;;;;4965099;28;20038;-60
2022/12/13 03:23:35;;;;;;;62.78;30.30;;;-4.60;99.90;;;;;;4964459;28;20069;-59
2022/12/13 03:26:06;;;;;;;59.92;29.98;;;-4.40;99.90;;;;;;4966324;28;20046;-59
2022/12/13 03:28:32;;;;;;;61.47;29.92;;;-4.60;99.90;;;;;;4966624;28;20058;-58
2022/12/13 03:30:58;;;;;;;52.33;26.73;;;-4.60;99.90;;;;;;4965175;28;20522;-59
2022/12/13 03:33:23;;;;;;;46.63;21.67;;;-4.60;99.90;;;;;;4966084;28;20533;-58
2022/12/13 03:35:49;;;;;;;59.78;29.38;;;-4.40;99.90;;;;;;4965832;28;20532;-57
2022/12/13 03:38:16;;;;;;;67.63;32.08;;;-4.50;99.90;;;;;;4965755;28;20062;-58
2022/12/13 03:40:42;;;;;;;61.88;30.52;;;-4.40;99.90;;;;;;4965488;28;20059;-58
2022/12/13 03:43:08;;;;;;;69.28;33.17;;;-4.20;99.90;;;;;;4965821;28;20772;-58
2022/12/13 03:45:34;;;;;;;69.75;32.72;;;-4.20;99.90;;;;;;4966088;28;20083;-58
2022/12/13 03:47:59;;;;;;;58.83;26.08;;;-4.40;99.90;;;;;;4965209;28;20046;-58
2022/12/13 03:50:25;;;;;;;66.88;29.60;;;-4.20;99.90;;;;;;4965864;28;20082;-59
2022/12/13 03:53:00;;;;;;;73.70;33.30;;;-4.40;99.90;;;;;;4965361;28;20379;-58
2022/12/13 03:55:27;;;;;;;69.57;35.03;;;-4.40;99.90;;;;;;4964730;28;20038;-59
2022/12/13 03:57:52;;;;;;;59.15;24.83;;;-4.40;99.90;;;;;;4965131;28;20042;-57
2022/12/13 04:00:18;;;;;;;69.03;31.88;;;-4.20;99.90;;;;;;4965680;28;20710;-58
2022/12/13 04:02:44;;;;;;;62.50;29.45;;;-3.60;99.90;;;;;;4965487;28;20189;-59
2022/12/13 04:05:09;;;;;;;65.38;31.77;;;-4.40;99.90;;;;;;4973391;28;20046;-58
2022/12/13 04:07:35;;;;;;;59.92;29.00;;;-4.10;99.90;;;;;;4968394;28;20039;-59
2022/12/13 04:10:02;;;;;;;55.88;28.15;;;-4.40;99.90;;;;;;4963995;28;20054;-57
2022/12/13 04:15:12;;;;;;;51.80;24.17;;;-4.60;99.90;;;;;;4965548;28;20146;-59
2022/12/13 04:17:38;;;;;;;61.20;29.90;;;-4.50;99.90;;;;;;4964437;28;20129;-58
2022/12/13 04:20:04;;;;;;;64.38;28.25;;;-4.60;99.90;;;;;;4965323;28;20132;-58
2022/12/13 04:22:29;;;;;;;70.10;34.10;;;-4.60;99.90;;;;;;4964325;28;20057;-56
2022/12/13 04:24:55;;;;;;;64.50;30.50;;;-4.40;99.90;;;;;;4964789;28;20043;-59
2022/12/13 04:27:21;;;;;;;63.53;30.02;;;-4.40;99.90;;;;;;4965142;28;20045;-58
2022/12/13 04:29:46;;;;;;;66.03;32.92;;;-4.50;99.90;;;;;;4964690;28;20390;-58
2022/12/13 04:32:12;;;;;;;71.65;33.88;;;-4.40;99.90;;;;;;4963475;28;20467;-59
2022/12/13 04:34:38;;;;;;;64.68;31.40;;;-4.40;99.90;;;;;;4965793;28;20090;-58
2022/12/13 04:37:04;;;;;;;65.68;30.92;;;-4.50;99.90;;;;;;4965181;28;20587;-58
2022/12/13 04:39:30;;;;;;;65.60;33.47;;;-4.50;99.90;;;;;;4963982;28;20035;-57
2022/12/13 04:41:55;;;;;;;67.47;31.00;;;-4.50;99.90;;;;;;4964641;28;20157;-59
2022/12/13 04:44:21;;;;;;;63.85;29.27;;;-4.50;99.90;;;;;;4964726;28;20070;-57
2022/12/13 04:46:47;;;;;;;73.32;33.25;;;-4.40;99.90;;;;;;4962978;28;20042;-59
2022/12/13 04:49:12;;;;;;;55.95;26.10;;;-4.70;99.90;;;;;;4964182;28;20047;-59
2022/12/13 04:51:38;;;;;;;65.70;29.55;;;-4.50;99.90;;;;;;4964796;28;20055;-59
2022/12/13 04:54:04;;;;;;;66.20;32.40;;;-4.70;99.90;;;;;;4964207;28;20063;-57
2022/12/13 04:56:29;;;;;;;68.55;31.75;;;-4.50;99.90;;;;;;4964340;28;20441;-58
2022/12/13 04:58:55;;;;;;;55.13;26.77;;;-4.80;99.90;;;;;;4963777;28;20043;-58
2022/12/13 05:01:21;;;;;;;68.30;31.10;;;-4.30;99.90;;;;;;4964838;28;20886;-57
2022/12/13 05:03:46;;;;;;;54.50;25.95;;;-4.60;99.90;;;;;;4966292;28;20413;-59
2022/12/13 05:06:13;;;;;;;68.97;32.17;;;-5.30;99.90;;;;;;4973867;28;20047;-60
2022/12/13 05:08:39;;;;;;;72.25;33.67;;;-4.70;99.90;;;;;;4961994;28;20771;-58
2022/12/13 05:11:07;;;;;;;68.35;34.03;;;-2.40;99.90;;;;;;4964929;28;20174;-58
2022/12/13 05:13:33;;;;;;;66.65;31.55;;;-4.90;99.90;;;;;;4964387;28;20437;-57
2022/12/13 05:16:01;;;;;;;68.95;32.85;;;-4.70;99.90;;;;;;4964498;28;20202;-58
2022/12/13 05:18:28;;;;;;;59.78;29.40;;;-4.70;99.90;;;;;;4963895;28;20168;-57
2022/12/13 05:20:53;;;;;;;56.58;28.77;;;-4.70;99.90;;;;;;4976825;28;20113;-56
2022/12/13 05:23:21;;;;;;;60.58;28.40;;;-4.70;99.90;;;;;;4982799;28;20137;-58
2022/12/13 05:25:47;;;;;;;57.60;29.40;;;-4.60;99.90;;;;;;4982683;28;20038;-59
2022/12/13 05:28:12;;;;;;;63.72;31.02;;;-4.80;99.90;;;;;;4984199;28;20097;-58
2022/12/13 05:30:39;;;;;;;69.40;33.08;;;-5.00;99.90;;;;;;4983418;28;20085;-58
2022/12/13 05:33:05;;;;;;;70.80;34.22;;;-4.80;99.90;;;;;;4983359;28;20088;-59
2022/12/13 05:35:31;;;;;;;71.15;36.22;;;-4.70;99.90;;;;;;4981575;28;20507;-58
2022/12/13 05:37:56;;;;;;;71.88;35.83;;;-4.80;99.90;;;;;;4982095;28;20073;-57
2022/12/13 05:40:23;;;;;;;67.60;34.05;;;-4.80;99.90;;;;;;4983092;28;20677;-58
2022/12/13 05:42:49;;;;;;;74.90;35.50;;;-4.60;99.90;;;;;;4983383;28;20042;-57
2022/12/13 05:45:17;;;;;;;70.32;33.03;;;-4.60;99.90;;;;;;4982304;28;20691;-61
2022/12/13 05:47:42;;;;;;;68.43;33.40;;;-4.90;99.90;;;;;;4983744;28;20470;-57
2022/12/13 05:50:08;;;;;;;73.82;35.78;;;-4.80;99.90;;;;;;4982553;28;20104;-56
2022/12/13 05:52:34;;;;;;;71.72;36.67;;;-4.90;99.90;;;;;;4982201;28;20101;-59
2022/12/13 05:54:59;;;;;;;77.20;36.47;;;-4.90;99.90;;;;;;4982637;28;20046;-58
2022/12/13 05:57:25;;;;;;;70.63;34.83;;;-4.80;99.90;;;;;;4982897;28;20689;-58
2022/12/13 05:59:51;;;;;;;81.53;35.13;;;-4.90;99.90;;;;;;4983064;28;20747;-58
2022/12/13 06:02:16;;;;;;;72.20;33.60;;;-4.90;99.90;;;;;;4981648;28;20212;-59
2022/12/13 06:04:43;;;;;;;66.75;31.55;;;-5.00;99.90;;;;;;4976809;28;20035;-58
2022/12/13 06:07:09;;;;;;;64.80;32.65;;;-4.70;99.90;;;;;;4967870;28;20050;-59
2022/12/13 06:09:35;;;;;;;59.85;28.63;;;-4.70;99.90;;;;;;4962580;28;20539;-57
2022/12/13 06:12:00;;;;;;;71.78;36.35;;;-5.00;99.90;;;;;;4962323;28;20125;-58
2022/12/13 06:14:26;;;;;;;69.78;32.53;;;-4.70;99.90;;;;;;4963541;28;20046;-59
2022/12/13 06:16:52;;;;;;;58.90;27.50;;;-4.80;99.90;;;;;;4963293;28;20130;-59
2022/12/13 06:19:19;;;;;;;72.40;34.10;;;-4.70;99.90;;;;;;4962891;28;20198;-58
2022/12/13 06:21:45;;;;;;;69.22;34.45;;;-5.00;99.90;;;;;;4963315;28;20121;-57
2022/12/13 06:24:11;;;;;;;65.50;32.10;;;-4.80;99.90;;;;;;4962341;28;20150;-58
2022/12/13 06:26:37;;;;;;;65.22;29.80;;;-4.80;99.90;;;;;;4963460;28;20421;-58
2022/12/13 06:29:02;;;;;;;64.47;29.33;;;-5.00;99.90;;;;;;4963041;28;20047;-59
2022/12/13 06:31:28;;;;;;;64.20;31.95;;;-4.80;99.90;;;;;;4962999;28;20624;-57
2022/12/13 06:33:54;;;;;;;62.63;26.30;;;-4.90;99.90;;;;;;4962922;28;20050;-57
2022/12/13 06:36:19;;;;;;;68.80;33.25;;;-5.10;99.90;;;;;;4962714;28;20413;-56
2022/12/13 06:38:45;;;;;;;74.28;34.97;;;-4.80;99.90;;;;;;4962542;28;20413;-57
2022/12/13 06:41:13;;;;;;;77.72;36.25;;;-5.10;99.90;;;;;;4962715;28;20612;-57
2022/12/13 06:43:43;;;;;;;71.25;33.35;;;-4.80;99.90;;;;;;4962760;28;20093;-59
2022/12/13 06:46:10;;;;;;;63.33;26.45;;;-4.80;99.90;;;;;;4963058;28;20133;-58
2022/12/13 06:48:35;;;;;;;61.50;27.83;;;-4.90;99.90;;;;;;4959801;28;20043;-57
2022/12/13 06:51:03;;;;;;;76.07;32.75;;;-4.80;99.90;;;;;;4962844;28;20055;-58
2022/12/13 06:53:30;;;;;;;54.08;25.95;;;-5.00;99.90;;;;;;4962009;28;20579;-58
2022/12/13 06:55:56;;;;;;;46.33;21.70;;;-4.80;99.90;;;;;;4962506;28;20049;-59
2022/12/13 06:58:23;;;;;;;65.40;29.70;;;-5.10;99.90;;;;;;4963373;28;20181;-58
2022/12/13 07:00:48;;;;;;;54.33;26.10;;;-4.90;99.90;;;;;;4962729;28;20690;-60
2022/12/13 07:03:14;;;;;;;69.93;34.08;;;-5.10;99.90;;;;;;4963508;28;20054;-58
2022/12/13 07:05:40;;;;;;;66.90;31.02;;;-4.90;99.90;;;;;;4972819;28;20469;-58
2022/12/13 07:08:06;;;;;;;62.60;28.60;;;-5.10;99.90;;;;;;4961948;28;20078;-58
2022/12/13 07:10:32;;;;;;;74.45;36.67;;;-3.60;99.90;;;;;;4962741;28;20082;-56
2022/12/13 07:12:57;;;;;;;82.22;37.30;;;-4.90;99.90;;;;;;4962469;28;20038;-59
2022/12/13 07:15:23;;;;;;;67.90;31.17;;;-5.00;99.90;;;;;;4961448;28;20059;-61
2022/12/13 07:17:50;;;;;;;62.22;29.83;;;-5.10;99.90;;;;;;4961939;28;20047;-58
2022/12/13 07:20:16;;;;;;;77.70;36.38;;;-5.30;99.90;;;;;;4962556;28;20097;-59
2022/12/13 07:22:41;;;;;;;74.43;35.35;;;-5.30;99.90;;;;;;4960849;28;20474;-58
2022/12/13 07:25:08;;;;;;;71.65;32.75;;;-5.40;99.90;;;;;;4961119;28;20061;-59
2022/12/13 07:27:34;;;;;;;52.30;24.95;;;-5.30;99.90;;;;;;4962009;28;20378;-58
2022/12/13 07:30:00;;;;;;;51.35;24.73;;;-5.40;99.90;;;;;;4962491;28;20088;-57
2022/12/13 07:32:26;;;;;;;72.40;33.83;;;-5.40;99.90;;;;;;4965567;28;20072;-59
2022/12/13 07:34:51;;;;;;;58.75;29.00;;;-5.50;99.90;;;;;;4966600;28;20489;-58
2022/12/13 07:37:18;;;;;;;62.95;29.17;;;-5.50;99.90;;;;;;4965765;28;20567;-58
2022/12/13 07:39:44;;;;;;;46.80;23.05;;;-5.20;99.90;;;;;;4965449;28;20047;-58
2022/12/13 07:42:10;;;;;;;55.83;26.55;;;-5.70;99.90;;;;;;4965674;28;20606;-59
2022/12/13 07:44:36;;;;;;;55.45;26.80;;;-5.40;99.90;;;;;;4966537;28;20043;-57
2022/12/13 07:47:02;;;;;;;63.17;27.80;;;-5.40;99.90;;;;;;4965349;28;20045;-58
2022/12/13 07:49:27;;;;;;;47.28;20.33;;;-5.60;99.90;;;;;;4966556;28;22069;-58
2022/12/13 07:51:53;;;;;;;61.53;28.77;;;-5.40;99.90;;;;;;4965241;28;20043;-56
2022/12/13 07:54:19;;;;;;;75.00;33.92;;;-5.60;99.90;;;;;;4965548;28;20070;-57
2022/12/13 07:56:44;;;;;;;65.00;30.77;;;-5.60;99.90;;;;;;4965937;28;20047;-58
2022/12/13 07:59:10;;;;;;;74.05;32.50;;;-5.60;99.90;;;;;;4965937;28;20082;-58
2022/12/13 08:01:36;;;;;;;65.28;31.38;;;-5.60;99.90;;;;;;4965136;28;20445;-58
2022/12/13 08:04:03;;;;;;;47.22;21.77;;;-5.60;99.90;;;;;;4967689;28;20034;-57
2022/12/13 08:06:33;;;;;;;70.90;31.40;;;-5.30;99.90;;;;;;4974556;28;20414;-57
2022/12/13 08:08:58;;;;;;;46.25;22.05;;;-5.30;99.90;;;;;;4964325;28;20057;-58
2022/12/13 08:11:24;;;;;;;68.32;31.92;;;-5.30;99.90;;;;;;4965446;28;20047;-57
2022/12/13 08:13:52;;;;;;;74.20;34.72;;;-5.30;99.90;;;;;;4966310;28;20097;-57
2022/12/13 08:16:18;;;;;;;74.18;35.58;;;-5.30;99.90;;;;;;4965704;28;20525;-57
2022/12/13 08:18:46;;;;;;;76.57;33.85;;;-5.40;99.90;;;;;;4964759;28;20118;-59
2022/12/13 08:21:12;;;;;;;61.35;29.15;;;-5.40;99.90;;;;;;4965547;28;20157;-59
2022/12/13 08:23:38;;;;;;;66.35;30.13;;;-5.30;99.90;;;;;;4964153;28;20047;-58
2022/12/13 08:26:04;;;;;;;56.10;25.00;;;-5.10;99.90;;;;;;4965471;28;20422;-59
2022/12/13 08:28:31;;;;;;;47.13;23.55;;;-5.40;99.90;;;;;;4963808;28;20109;-58
2022/12/13 08:31:07;;;;;;;60.88;28.48;;;-5.10;99.90;;;;;;4965056;28;20054;-60
2022/12/13 08:33:33;;;;;;;47.25;23.33;;;-5.30;99.90;;;;;;4964887;28;20047;-60
2022/12/13 08:36:15;;;;;;;67.72;33.75;;;-4.20;99.90;;;;;;4964276;28;20441;-60
2022/12/13 08:38:41;;;;;;;62.72;31.15;;;-4.90;99.90;;;;;;4964451;28;20324;-58
2022/12/13 08:41:08;;;;;;;75.72;36.00;;;-4.60;99.90;;;;;;4964847;28;20045;-58
2022/12/13 08:43:34;;;;;;;71.50;33.88;;;-5.00;99.90;;;;;;4963679;28;20047;-59
2022/12/13 08:46:00;;;;;;;72.50;35.67;;;-4.60;99.90;;;;;;4964364;28;20039;-58
2022/12/13 08:48:26;;;;;;;66.55;31.90;;;-4.90;99.90;;;;;;4964470;28;20173;-58
2022/12/13 08:50:52;;;;;;;76.15;36.28;;;-4.90;99.90;;;;;;4964058;28;20050;-60
2022/12/13 08:53:17;;;;;;;66.45;34.38;;;-4.80;99.90;;;;;;4963446;28;20039;-57
2022/12/13 08:55:43;;;;;;;76.97;37.92;;;-4.90;99.90;;;;;;4977946;28;20557;-63
2022/12/13 08:58:09;;;;;;;78.40;38.92;;;-4.30;99.90;;;;;;4982630;28;20054;-62
2022/12/13 09:00:36;;;;;;;81.07;39.60;;;-4.70;99.90;;;;;;4982388;28;20099;-63
2022/12/13 09:03:03;;;;;;;70.63;35.13;;;-4.90;99.90;;;;;;4983667;28;20125;-63
2022/12/13 09:05:29;;;;;;;79.18;37.00;;;-4.30;99.90;;;;;;4976881;28;20059;-63
2022/12/13 09:07:57;;;;;;;76.05;36.28;;;-4.60;99.90;;;;;;4963838;28;20485;-63
2022/12/13 09:10:23;;;;;;;70.15;34.08;;;-4.70;99.90;;;;;;4963908;28;20054;-62
2022/12/13 09:12:49;;;;;;;71.95;34.08;;;-4.80;99.90;;;;;;4962581;28;20122;-63
2022/12/13 09:15:15;;;;;;;64.97;31.05;;;-4.60;99.90;;;;;;4963127;28;20105;-62
2022/12/13 09:17:41;;;;;;;72.47;34.80;;;-4.50;99.90;;;;;;4963543;28;20132;-63
2022/12/13 09:20:10;;;;;;;75.00;35.45;;;-4.50;99.90;;;;;;4962253;28;20128;-63
2022/12/13 09:22:36;;;;;;;64.03;31.63;;;-4.60;99.90;;;;;;4964118;28;20042;-62
2022/12/13 09:25:02;;;;;;;74.45;37.03;;;-4.60;99.90;;;;;;4962898;28;20670;-63
2022/12/13 09:27:30;;;;;;;69.95;36.47;;;-4.30;99.90;;;;;;4967736;28;20053;-63
2022/12/13 09:29:56;;;;;;;72.65;32.22;;;-4.70;99.90;;;;;;4981008;28;20057;-62
2022/12/13 09:32:22;;;;;;;65.93;32.20;;;-4.60;99.90;;;;;;4982467;28;20394;-62
2022/12/13 09:34:48;;;;;;;67.05;33.30;;;-4.60;99.90;;;;;;4982430;28;20042;-63
2022/12/13 09:37:14;;;;;;;58.03;28.92;;;-4.20;99.90;;;;;;4963036;28;20081;-63
2022/12/13 09:39:39;;;;;;;64.70;35.38;;;-4.20;99.90;;;;;;4977108;28;20065;-63
2022/12/13 09:42:13;;;;;;;65.93;32.15;;;-2.70;99.90;;;;;;4964265;28;20042;-63
2022/12/13 09:44:46;;;;;;;57.33;27.95;;;-4.70;99.90;;;;;;4979732;28;20105;-63
2022/12/13 09:47:30;;;;;;;44.40;22.52;;;-4.00;99.90;;;;;;4981307;28;20057;-62
2022/12/13 09:49:57;;;;;;;55.05;26.77;;;-4.10;99.90;;;;;;4982886;28;20039;-62
2022/12/13 09:52:24;;;;;;;61.45;31.23;;;-3.00;99.90;;;;;;4981000;28;20121;-62
2022/12/13 09:54:54;;;;;;;40.97;17.10;;;-4.00;99.90;;;;;;4979756;28;20038;-62
2022/12/13 09:57:31;;;;;;;57.08;27.42;;;-4.20;99.90;;;;;;4982547;28;20137;-63
2022/12/13 09:59:57;;;;;;;64.30;32.97;;;-4.20;99.90;;;;;;4983260;28;20061;-62
2022/12/13 10:02:31;;;;;;;75.57;36.80;;;-4.10;99.90;;;;;;4982628;28;20124;-62
2022/12/13 10:05:20;;;;;;;66.47;34.63;;;-1.80;99.90;;;;;;4976663;28;20099;-62
2022/12/13 10:07:47;;;;;;;56.53;26.55;;;-3.80;99.90;;;;;;4975568;28;20038;-62
2022/12/13 10:10:13;;;;;;;63.33;29.58;;;-3.50;99.90;;;;;;4982283;28;20565;-62
2022/12/13 10:12:42;;;;;;;66.50;31.75;;;-3.80;99.90;;;;;;4981249;28;20104;-63
2022/12/13 10:15:11;;;;;;;68.18;35.72;;;-2.60;99.90;;;;;;4981587;28;20111;-63
2022/12/13 10:17:39;;;;;;;58.97;26.95;;;-4.00;99.90;;;;;;4965070;28;20046;-63
2022/12/13 10:20:07;;;;;;;46.63;21.35;;;-3.50;99.90;;;;;;4962811;28;20620;-63
2022/12/13 10:22:32;;;;;;;65.35;32.47;;;-3.50;99.90;;;;;;4969823;28;20421;-63
2022/12/13 10:25:02;;;;;;;65.68;34.30;;;-3.50;99.90;;;;;;4982615;28;20049;-63
2022/12/13 10:27:37;;;;;;;55.25;26.35;;;-3.60;99.90;;;;;;4982342;28;20050;-63
2022/12/13 10:30:15;;;;;;;51.78;23.83;;;-3.10;99.90;;;;;;4961848;28;20049;-63
2022/12/13 10:32:53;;;;;;;65.20;33.30;;;-3.40;99.90;;;;;;4971913;28;20048;-63
2022/12/13 10:35:27;;;;;;;46.40;25.70;;;-3.60;99.90;;;;;;4981047;28;20182;-63
2022/12/13 10:37:53;;;;;;;65.55;34.10;;;-3.50;99.90;;;;;;4980682;28;20758;-64
2022/12/13 10:40:34;;;;;;;75.47;33.45;;;-3.40;99.90;;;;;;4981937;28;20086;-63
2022/12/13 10:43:14;;;;;;;75.68;37.28;;;-3.70;99.90;;;;;;4981601;28;20043;-64
2022/12/13 10:46:04;;;;;;;55.85;28.52;;;-3.20;99.90;;;;;;4981518;28;20132;-63
2022/12/13 10:48:32;;;;;;;63.92;30.15;;;-2.70;99.90;;;;;;4981779;28;20054;-64
2022/12/13 10:51:11;;;;;;;73.10;37.63;;;-3.50;99.90;;;;;;4981850;28;20050;-64
2022/12/13 10:53:45;;;;;;;60.80;31.15;;;-3.00;99.90;;;;;;4978329;28;20100;-63
2022/12/13 10:56:11;;;;;;;76.43;38.63;;;-3.40;99.90;;;;;;4981400;28;20720;-63
2022/12/13 10:58:47;;;;;;;82.40;41.20;;;-3.20;99.90;;;;;;4982120;28;20055;-63
2022/12/13 11:01:27;;;;;;;83.35;40.15;;;-1.50;99.90;;;;;;4980738;28;20425;-63
2022/12/13 11:04:05;;;;;;;59.72;29.02;;;-2.20;99.90;;;;;;4978984;28;20062;-64
2022/12/13 11:06:45;;;;;;;65.90;35.40;;;-2.00;99.90;;;;;;4973793;28;20054;-65
2022/12/13 11:09:34;;;;;;;65.05;34.13;;;-1.10;99.90;;;;;;4965285;28;20054;-63
2022/12/13 11:12:12;;;;;;;59.50;33.03;;;1.00;99.90;;;;;;4963947;28;20137;-63
2022/12/13 11:15:03;;;;;;;58.33;33.90;;;-0.70;99.90;;;;;;4965999;28;20218;-64
2022/12/13 11:17:32;;;;;;;57.03;33.83;;;-0.40;99.90;;;;;;4981332;28;20089;-65
2022/12/13 11:20:05;;;;;;;55.58;34.33;;;0.80;99.90;;;;;;4985342;28;20049;-64
2022/12/13 11:22:36;;;;;;;55.33;32.67;;;0.00;99.90;;;;;;4983891;28;20046;-63
2022/12/13 11:25:08;;;;;;;55.35;32.78;;;2.20;99.90;;;;;;4983095;28;20382;-63
2022/12/13 11:27:47;;;;;;;52.20;31.10;;;0.80;99.90;;;;;;4984833;28;20125;-64
2022/12/13 11:30:40;;;;;;;52.72;31.13;;;0.40;99.90;;;;;;4984916;28;20058;-63
2022/12/13 11:33:16;;;;;;;50.17;27.77;;;-0.10;99.90;;;;;;4984743;28;20821;-63
2022/12/13 11:35:45;;;;;;;50.22;30.75;;;-0.40;99.90;;;;;;4982950;28;20054;-63
2022/12/13 11:38:46;;;;;;;54.03;31.85;;;1.20;99.90;;;;;;4984597;28;20038;-63
2022/12/13 11:41:18;;;;;;;48.60;31.90;;;0.20;99.90;;;;;;4990447;28;20377;-63
2022/12/13 11:44:27;;;;;;;52.83;31.10;;;0.50;99.90;;;;;;4984956;28;20130;-63
2022/12/13 11:47:00;;;;;;;49.63;31.88;;;0.90;99.90;;;;;;4984563;28;20132;-63
2022/12/13 11:49:39;;;;;;;48.60;31.45;;;1.50;99.90;;;;;;4998859;28;20053;-63
2022/12/13 11:52:16;;;;;;;53.47;32.20;;;1.30;99.90;;;;;;4975622;28;20413;-64
2022/12/13 11:55:19;;;;;;;53.28;32.67;;;0.80;99.90;;;;;;4965392;28;20393;-63
2022/12/13 11:58:03;;;;;;;50.83;31.50;;;0.80;99.90;;;;;;4966223;28;20433;-63
2022/12/13 12:00:45;;;;;;;48.03;25.77;;;1.00;99.90;;;;;;4964629;28;20047;-63
2022/12/13 12:03:42;;;;;;;50.83;32.92;;;0.10;99.90;;;;;;4964163;28;20055;-63
2022/12/13 12:06:21;;;;;;;49.83;31.10;;;0.50;99.90;;;;;;4974655;28;20128;-63
2022/12/13 12:08:59;;;;;;;45.95;28.98;;;0.40;99.90;;;;;;4984104;28;20181;-63
2022/12/13 12:11:43;;;;;;;48.80;31.90;;;0.60;99.90;;;;;;4984704;28;20061;-64
2022/12/13 12:14:15;;;;;;;45.15;30.65;;;0.50;99.90;;;;;;4984438;28;20054;-63
2022/12/13 12:16:50;;;;;;;47.17;29.42;;;1.00;99.90;;;;;;4983222;28;20050;-64
2022/12/13 12:19:19;;;;;;;49.03;32.13;;;1.70;99.90;;;;;;4984987;28;20398;-63
2022/12/13 12:22:07;;;;;;;48.47;30.83;;;0.50;99.90;;;;;;4982701;28;20039;-64
2022/12/13 12:24:35;;;;;;;50.20;30.23;;;0.60;99.90;;;;;;4985032;28;20111;-64
2022/12/13 12:27:14;;;;;;;48.78;30.77;;;0.50;99.90;;;;;;4984974;28;20487;-64
2022/12/13 12:30:13;;;;;;;54.90;31.75;;;0.40;99.90;;;;;;4983833;28;20117;-64
2022/12/13 12:32:45;;;;;;;50.90;30.63;;;1.40;99.90;;;;;;4989793;28;20501;-64
2022/12/13 12:35:36;;;;;;;53.35;32.40;;;1.10;99.90;;;;;;4982956;28;20047;-64
2022/12/13 12:38:40;;;;;;;49.53;33.35;;;0.60;99.90;;;;;;4982918;28;20077;-65
2022/12/13 12:41:24;;;;;;;50.17;30.65;;;1.30;99.90;;;;;;5002162;28;20817;-64
2022/12/13 12:44:02;;;;;;;52.83;33.05;;;0.50;99.90;;;;;;4982401;28;20521;-64
2022/12/13 12:46:31;;;;;;;47.90;31.50;;;1.80;99.90;;;;;;4983750;28;20085;-64
2022/12/13 12:49:12;;;;;;;49.13;31.80;;;0.40;99.90;;;;;;4983320;28;20050;-64